Main page
METAR-TAF:

METAR-TAF

Airports :

Murcia, Spain

Murcia–San Javier Airport

latitude: 37-47N, longitude: 000-48W, elevation: 5 m

Current weather observation

The report was made 53 minutes ago, at 16:00 UTC
Wind 7 kt from the East/Southeast, varying between East/Northeast and South/Southeast
Temperature 28°C
Humidity 66%
Pressure 1013 hPa
Visibility 10 km or more
no clouds below 1500 m and no cumulonimbus

METAR: LELC 221600Z 12007KT 070V160 CAVOK 28/21 Q1013 NOSIG

Time: 18:53 (16:53 UTC)

Forecast

The report was made 5 hours and 53 minutes ago, at 11:00 UTC
Forecast valid from 22 at 12 UTC to 23 at 12 UTC
Wind 9 kt from the East/Southeast
Visibility 10 km or more
no clouds below 1500 m and no cumulonimbus

TAF: LELC 221100Z 2212/2312 11009KT CAVOK TX27/2312Z TN22/2301Z

Weather observations and forecasts of more than 4000 airports (METAR and TAF reports).

The available stations are represented by yellow and red dots on the map.

Hover mouse over dot to see the name of the station.

Then click to see weather observations and forecasts.

To change the map : click on the green buttons with a black cross to zoom in, on the green button with a dash to zoom out, or on the green arrows for adjacent maps.


METAR-TAF: